createdAt,value
2019-03-28T00:03:10.372Z,93.80
2019-03-28T00:08:13.815Z,93.50
2019-03-28T00:13:17.262Z,93.99
2019-03-28T00:18:20.696Z,93.84
2019-03-28T00:23:28.364Z,93.68
2019-03-28T00:28:31.809Z,93.71
2019-03-28T00:33:35.255Z,94.30
2019-03-28T00:38:38.810Z,95.35
2019-03-28T00:43:42.277Z,95.73
2019-03-28T00:48:45.721Z,95.22
2019-03-28T00:53:49.164Z,95.03
2019-03-28T00:58:52.625Z,95.52
2019-03-28T01:03:56.083Z,96.31
2019-03-28T01:08:59.526Z,97.25
2019-03-28T01:14:03.145Z,97.57
2019-03-28T01:19:06.584Z,98.09
2019-03-28T01:24:10.030Z,98.27
2019-03-28T01:29:13.467Z,98.43
2019-03-28T01:34:16.910Z,99.19
2019-03-28T01:39:20.352Z,99.46
2019-03-28T01:44:24.446Z,99.68
2019-03-28T01:49:27.980Z,100.00
2019-03-28T01:54:31.419Z,100.00
2019-03-28T01:59:34.862Z,100.00
2019-03-28T02:04:38.325Z,100.00
2019-03-28T02:09:41.883Z,99.43
2019-03-28T02:14:45.357Z,100.00
2019-03-28T02:19:48.837Z,100.00
2019-03-28T02:24:52.315Z,100.00
2019-03-28T02:29:55.746Z,100.00
2019-03-28T02:34:59.190Z,100.00
2019-03-28T02:40:02.664Z,100.00
2019-03-28T02:45:06.770Z,100.00
2019-03-28T02:50:11.426Z,100.00
2019-03-28T02:55:15.145Z,100.00
2019-03-28T03:00:18.697Z,100.00
2019-03-28T03:05:22.148Z,100.00
2019-03-28T03:10:25.705Z,100.00
2019-03-28T03:15:29.882Z,100.00
2019-03-28T03:20:33.772Z,100.00
2019-03-28T03:25:37.232Z,100.00
2019-03-28T03:30:40.699Z,100.00
2019-03-28T03:35:44.153Z,100.00
2019-03-28T03:40:47.634Z,100.00
2019-03-28T03:45:51.080Z,100.00
2019-03-28T03:50:54.561Z,100.00
2019-03-28T03:55:58.061Z,98.21
2019-03-28T04:01:01.519Z,97.84
2019-03-28T04:06:04.991Z,97.09
2019-03-28T04:11:08.460Z,97.35
2019-03-28T04:16:11.953Z,95.53
2019-03-28T04:21:15.418Z,95.87
2019-03-28T04:26:18.866Z,95.74
2019-03-28T04:31:22.326Z,96.08
2019-03-28T04:36:25.782Z,96.11
2019-03-28T04:41:29.241Z,96.99
2019-03-28T04:46:32.769Z,97.05
2019-03-28T04:51:36.878Z,96.53
2019-03-28T04:56:40.262Z,96.70
2019-03-28T05:01:43.723Z,96.43
2019-03-28T05:06:47.215Z,96.61
2019-03-28T05:11:50.914Z,96.99
2019-03-28T05:16:54.356Z,97.36
2019-03-28T05:21:58.500Z,97.14
2019-03-28T05:27:02.011Z,96.81
2019-03-28T05:32:05.458Z,96.73
2019-03-28T05:37:08.905Z,97.27
2019-03-28T05:42:12.350Z,95.84
2019-03-28T05:47:15.843Z,96.52
2019-03-28T05:52:19.300Z,96.90
2019-03-28T05:57:22.795Z,97.36
2019-03-28T06:02:26.340Z,96.95
2019-03-28T06:07:29.793Z,97.29
2019-03-28T06:12:33.240Z,97.38
2019-03-28T06:17:37.855Z,97.20
2019-03-28T06:22:41.449Z,96.54
2019-03-28T06:27:44.883Z,95.98
2019-03-28T06:32:48.350Z,96.17
2019-03-28T06:37:51.793Z,95.60
2019-03-28T06:42:55.413Z,94.96
2019-03-28T06:47:58.863Z,94.71
2019-03-28T06:53:02.309Z,95.20
2019-03-28T06:58:05.850Z,94.51
2019-03-28T07:03:09.321Z,94.27
2019-03-28T07:08:12.849Z,94.70
2019-03-28T07:13:16.296Z,95.54
2019-03-28T07:18:19.739Z,95.37
2019-03-28T07:23:23.175Z,95.24
2019-03-28T07:28:26.621Z,95.09
2019-03-28T07:33:30.084Z,93.86
2019-03-28T07:38:33.536Z,92.06
2019-03-28T07:43:36.990Z,91.51
2019-03-28T07:48:40.448Z,91.57
2019-03-28T07:53:43.898Z,90.22
2019-03-28T07:58:47.367Z,88.98
2019-03-28T08:03:50.840Z,86.51
2019-03-28T08:08:54.280Z,86.05
2019-03-28T08:13:57.752Z,85.42
2019-03-28T08:19:01.231Z,81.83
2019-03-28T08:24:04.887Z,81.96
2019-03-28T08:29:08.348Z,81.12
2019-03-28T08:34:11.975Z,80.08
2019-03-28T08:39:16.672Z,78.57
2019-03-28T08:44:22.626Z,77.37
2019-03-28T08:49:25.321Z,76.60
2019-03-28T08:54:28.849Z,73.99
2019-03-28T08:59:32.305Z,74.82
2019-03-28T09:04:35.765Z,73.48
2019-03-28T09:09:39.213Z,72.31
2019-03-28T09:14:42.673Z,70.61
2019-03-28T09:19:46.120Z,69.33
2019-03-28T09:24:49.557Z,67.61
2019-03-28T09:29:53.065Z,65.23
2019-03-28T09:34:56.940Z,64.58
2019-03-28T09:40:00.392Z,65.02
2019-03-28T09:45:06.292Z,62.33
2019-03-28T09:50:10.098Z,64.14
2019-03-28T09:55:13.537Z,65.92
2019-03-28T10:00:17.489Z,65.39
2019-03-28T10:05:20.938Z,65.13
2019-03-28T10:10:24.400Z,65.28
2019-03-28T10:15:28.364Z,63.54
2019-03-28T10:20:31.829Z,63.86
2019-03-28T10:25:35.288Z,63.53
2019-03-28T10:30:40.700Z,62.29
2019-03-28T10:35:44.144Z,62.75
2019-03-28T10:40:47.595Z,60.35
2019-03-28T10:45:51.038Z,59.16
2019-03-28T10:50:54.576Z,59.19
2019-03-28T10:55:58.026Z,58.54
2019-03-28T11:01:01.484Z,58.13
2019-03-28T11:06:05.017Z,58.52
2019-03-28T11:11:08.464Z,58.95
2019-03-28T11:16:14.861Z,57.73
2019-03-28T11:21:17.091Z,55.57
2019-03-28T11:26:20.614Z,57.68
2019-03-28T11:31:24.078Z,54.63
2019-03-28T11:36:28.170Z,57.51
2019-03-28T11:41:32.179Z,55.55
2019-03-28T11:46:35.629Z,56.59
2019-03-28T11:51:39.057Z,55.39
2019-03-28T11:56:42.495Z,54.77
2019-03-28T12:01:59.102Z,53.23
2019-03-28T12:06:51.149Z,52.38
2019-03-28T12:11:54.609Z,52.27
2019-03-28T12:16:58.046Z,53.14
2019-03-28T12:22:01.505Z,52.21
2019-03-28T12:27:05.007Z,51.13
2019-03-28T12:32:14.207Z,51.08
2019-03-28T12:37:13.613Z,50.18
2019-03-28T12:42:17.048Z,50.73
2019-03-28T12:47:20.497Z,49.69
2019-03-28T12:52:23.936Z,49.02
2019-03-28T12:57:27.795Z,50.46
2019-03-28T13:02:32.061Z,50.80
2019-03-28T13:07:35.755Z,53.31
2019-03-28T13:12:39.276Z,51.12
2019-03-28T13:17:42.719Z,50.39
2019-03-28T13:22:46.251Z,51.16
2019-03-28T13:27:49.717Z,50.55
2019-03-28T13:32:53.134Z,51.28
2019-03-28T13:37:56.556Z,52.64
2019-03-28T13:42:59.979Z,50.76
2019-03-28T13:48:03.401Z,51.28
2019-03-28T13:53:06.836Z,50.90
2019-03-28T13:58:10.262Z,51.59
2019-03-28T14:03:13.697Z,53.46
2019-03-28T14:08:17.116Z,56.29
2019-03-28T14:13:21.523Z,56.86
2019-03-28T14:18:25.257Z,56.63
2019-03-28T14:23:28.686Z,58.38
2019-03-28T14:28:32.138Z,58.14
2019-03-28T14:33:35.547Z,58.27
2019-03-28T14:38:38.976Z,58.60
2019-03-28T14:43:43.030Z,58.02
2019-03-28T14:48:46.403Z,58.95
2019-03-28T14:53:49.830Z,58.67
2019-03-28T14:58:55.234Z,59.26
2019-03-28T15:03:58.658Z,58.48
2019-03-28T15:09:02.132Z,58.91
2019-03-28T15:14:05.557Z,58.47
2019-03-28T15:19:08.989Z,57.74
2019-03-28T15:24:12.402Z,58.82
2019-03-28T15:29:15.836Z,58.17
2019-03-28T15:34:19.379Z,57.96
2019-03-28T15:39:22.791Z,57.81
2019-03-28T15:44:26.221Z,57.22
2019-03-28T15:49:29.629Z,57.12
2019-03-28T15:54:33.043Z,58.25
2019-03-28T15:59:36.472Z,58.25
2019-03-28T16:04:39.879Z,56.63
2019-03-28T16:09:43.360Z,57.57
2019-03-28T16:14:46.773Z,59.37
2019-03-28T16:19:50.266Z,59.24
2019-03-28T16:24:53.693Z,57.49
2019-03-28T16:29:57.131Z,57.32
2019-03-28T16:35:00.561Z,58.42
2019-03-28T16:40:06.339Z,61.99
2019-03-28T16:45:10.121Z,60.14
2019-03-28T16:50:14.190Z,57.30
2019-03-28T16:55:26.336Z,59.87
2019-03-28T17:00:28.990Z,61.67
2019-03-28T17:05:34.716Z,62.43
2019-03-28T17:11:04.382Z,60.05
2019-03-28T17:16:07.821Z,59.53
2019-03-28T17:21:11.226Z,61.33
2019-03-28T17:26:14.661Z,61.92
2019-03-28T17:31:18.895Z,61.59
2019-03-28T17:36:22.383Z,62.26
2019-03-28T17:41:25.810Z,59.85
2019-03-28T17:46:29.242Z,59.79
2019-03-28T17:51:32.763Z,62.17
2019-03-28T17:56:36.191Z,63.41
2019-03-28T18:01:39.604Z,64.67
2019-03-28T18:06:43.082Z,64.82
2019-03-28T18:11:47.743Z,64.73
2019-03-28T18:16:51.377Z,65.25
2019-03-28T18:22:03.233Z,66.63
2019-03-28T18:27:00.361Z,66.71
2019-03-28T18:32:03.806Z,67.41
2019-03-28T18:37:07.251Z,67.08
2019-03-28T18:42:10.653Z,67.88
2019-03-28T18:47:14.069Z,68.36
2019-03-28T18:52:18.357Z,69.22
2019-03-28T18:57:21.852Z,68.74
2019-03-28T19:02:25.284Z,69.26
2019-03-28T19:07:28.716Z,70.73
2019-03-28T19:12:32.140Z,71.66
2019-03-28T19:17:35.855Z,70.19
2019-03-28T19:22:39.272Z,65.50
2019-03-28T19:27:42.685Z,66.12
2019-03-28T19:32:46.113Z,66.70
2019-03-28T19:37:50.588Z,68.55
2019-03-28T19:42:54.033Z,69.64
2019-03-28T19:47:57.475Z,71.15
2019-03-28T19:53:00.987Z,71.33
2019-03-28T19:58:04.999Z,71.73
2019-03-28T20:03:08.694Z,71.41
2019-03-28T20:08:15.910Z,72.33
2019-03-28T20:13:17.412Z,73.82
2019-03-28T20:18:20.845Z,72.95
2019-03-28T20:23:24.288Z,73.23
2019-03-28T20:28:27.813Z,73.25
2019-03-28T20:33:31.232Z,74.18
2019-03-28T20:38:34.658Z,74.67
2019-03-28T20:43:38.100Z,74.56
2019-03-28T20:48:42.172Z,74.85
2019-03-28T20:53:46.330Z,75.91
2019-03-28T20:58:49.799Z,76.03
2019-03-28T21:03:53.352Z,75.65
2019-03-28T21:08:56.772Z,72.72
2019-03-28T21:14:00.252Z,73.29
2019-03-28T21:19:03.699Z,74.13
2019-03-28T21:24:07.139Z,74.71
2019-03-28T21:29:10.551Z,75.13
2019-03-28T21:34:14.068Z,75.57
2019-03-28T21:39:17.512Z,75.45
2019-03-28T21:44:20.914Z,76.16
2019-03-28T21:49:24.325Z,77.05
2019-03-28T21:54:27.751Z,77.33
2019-03-28T21:59:31.191Z,76.23
2019-03-28T22:04:35.067Z,76.57
2019-03-28T22:09:39.806Z,76.84
2019-03-28T22:14:43.410Z,77.25
2019-03-28T22:19:46.837Z,77.20
2019-03-28T22:24:50.357Z,77.66
2019-03-28T22:29:53.782Z,78.56
2019-03-28T22:34:57.212Z,78.28
2019-03-28T22:40:00.637Z,77.57
2019-03-28T22:45:06.595Z,75.31
2019-03-28T22:50:11.158Z,76.56
2019-03-28T22:55:14.729Z,75.69
2019-03-28T23:00:21.792Z,77.85
2019-03-28T23:05:25.266Z,75.67
2019-03-28T23:10:28.679Z,77.02
2019-03-28T23:15:32.097Z,77.19
2019-03-28T23:20:35.563Z,77.72
2019-03-28T23:25:39.000Z,75.56
2019-03-28T23:30:42.436Z,76.65
2019-03-28T23:35:46.143Z,77.75
2019-03-28T23:40:49.581Z,78.68
2019-03-28T23:45:52.997Z,79.36
2019-03-28T23:50:56.430Z,80.38
2019-03-28T23:55:59.874Z,80.56
